createdAt,value
2022-08-29T00:00:27.004Z,41.45
2022-08-29T00:01:32.275Z,41.43
2022-08-29T00:02:36.871Z,41.44
2022-08-29T00:03:42.102Z,41.49
2022-08-29T00:04:46.666Z,41.48
2022-08-29T00:05:50.093Z,41.49
2022-08-29T00:06:53.330Z,41.48
2022-08-29T00:07:55.943Z,41.45
2022-08-29T00:08:58.100Z,41.44
2022-08-29T00:10:00.348Z,41.41
2022-08-29T00:11:02.496Z,41.43
2022-08-29T00:12:06.213Z,41.40
2022-08-29T00:13:09.217Z,41.40
2022-08-29T00:14:23.545Z,41.42
2022-08-29T00:15:15.898Z,41.42
2022-08-29T00:16:18.835Z,41.38
2022-08-29T00:17:21.365Z,41.38
2022-08-29T00:18:24.121Z,41.38
2022-08-29T00:19:26.964Z,41.38
2022-08-29T00:20:34.519Z,41.35
2022-08-29T00:21:36.955Z,41.33
2022-08-29T00:22:39.950Z,41.34
2022-08-29T00:23:45.985Z,41.33
2022-08-29T00:24:48.191Z,41.33
2022-08-29T00:25:50.479Z,41.31
2022-08-29T00:26:53.004Z,41.33
2022-08-29T00:27:55.630Z,41.29
2022-08-29T00:28:57.910Z,41.29
2022-08-29T00:30:00.463Z,41.29
2022-08-29T00:31:03.497Z,41.30
2022-08-29T00:32:06.202Z,41.31
2022-08-29T00:33:08.621Z,41.30
2022-08-29T00:34:11.020Z,41.31
2022-08-29T00:35:16.607Z,41.31
2022-08-29T00:36:19.639Z,41.31
2022-08-29T00:37:24.163Z,41.31
2022-08-29T00:38:27.982Z,41.32
2022-08-29T00:39:32.573Z,41.32
2022-08-29T00:40:38.008Z,41.32
2022-08-29T00:41:40.985Z,41.31
2022-08-29T00:42:44.459Z,41.32
2022-08-29T00:43:46.608Z,41.34
2022-08-29T00:44:48.852Z,41.33
2022-08-29T00:46:10.372Z,41.33
2022-08-29T00:47:12.676Z,41.31
2022-08-29T00:48:16.072Z,41.32
2022-08-29T00:49:25.035Z,41.30
2022-08-29T00:50:32.051Z,41.31
2022-08-29T00:51:34.552Z,41.31
2022-08-29T00:52:42.501Z,41.31
2022-08-29T00:53:45.593Z,41.33
2022-08-29T00:54:50.688Z,41.34
2022-08-29T00:55:52.965Z,41.31
2022-08-29T00:56:55.930Z,41.36
2022-08-29T00:58:18.686Z,41.41
2022-08-29T00:59:27.710Z,41.41
2022-08-29T01:00:30.348Z,41.42
2022-08-29T01:01:33.921Z,41.43
2022-08-29T01:02:40.347Z,41.46
2022-08-29T01:03:42.968Z,41.46
2022-08-29T01:04:44.547Z,41.47
2022-08-29T01:05:46.781Z,41.48
2022-08-29T01:06:49.331Z,41.49
2022-08-29T01:07:51.717Z,41.51
2022-08-29T01:08:57.204Z,41.47
2022-08-29T01:09:58.494Z,41.49
2022-08-29T01:11:00.748Z,41.47
2022-08-29T01:12:03.447Z,41.48
2022-08-29T01:13:07.702Z,41.49
2022-08-29T01:14:09.969Z,41.48
2022-08-29T01:15:12.327Z,41.48
2022-08-29T01:16:15.397Z,41.48
2022-08-29T01:17:21.765Z,41.47
2022-08-29T01:18:24.253Z,41.47
2022-08-29T01:19:42.923Z,41.48
2022-08-29T01:21:04.219Z,41.47
2022-08-29T01:22:30.600Z,41.44
2022-08-29T01:23:56.319Z,41.43
2022-08-29T01:24:58.587Z,41.42
2022-08-29T01:26:00.976Z,41.40
2022-08-29T01:27:03.331Z,41.45
2022-08-29T01:28:11.600Z,41.46
2022-08-29T01:29:14.603Z,41.46
2022-08-29T01:30:18.579Z,41.48
2022-08-29T01:31:38.625Z,41.50
2022-08-29T01:32:28.611Z,41.49
2022-08-29T01:33:45.560Z,41.50
2022-08-29T01:34:47.839Z,41.46
2022-08-29T01:35:50.357Z,41.47
2022-08-29T01:36:55.095Z,41.46
2022-08-29T01:37:57.444Z,41.45
2022-08-29T01:38:59.801Z,41.45
2022-08-29T01:40:03.903Z,41.46
2022-08-29T01:41:06.331Z,41.45
2022-08-29T01:42:17.248Z,41.45
2022-08-29T01:43:20.231Z,41.44
2022-08-29T01:44:22.735Z,41.41
2022-08-29T01:45:25.553Z,41.39
2022-08-29T01:46:30.820Z,41.40
2022-08-29T01:47:34.195Z,41.36
2022-08-29T01:49:50.774Z,41.36
2022-08-29T01:50:53.068Z,41.35
2022-08-29T01:51:55.202Z,41.36
2022-08-29T01:52:57.402Z,41.35
2022-08-29T01:53:59.561Z,41.33
2022-08-29T01:55:01.824Z,41.34
2022-08-29T01:56:15.958Z,41.33
2022-08-29T01:57:18.373Z,41.30
2022-08-29T01:58:20.728Z,41.28
2022-08-29T01:59:24.609Z,41.28
2022-08-29T02:00:28.433Z,41.25
2022-08-29T02:01:34.380Z,41.24
2022-08-29T02:02:37.024Z,41.25
2022-08-29T02:03:40.860Z,41.27
2022-08-29T02:04:44.320Z,41.29
2022-08-29T02:05:46.611Z,41.28
2022-08-29T02:06:49.931Z,41.28
2022-08-29T02:07:53.271Z,41.24
2022-08-29T02:08:55.467Z,41.25
2022-08-29T02:09:57.615Z,41.27
2022-08-29T02:11:00.042Z,41.27
2022-08-29T02:12:02.924Z,41.24
2022-08-29T02:13:05.122Z,41.22
2022-08-29T02:14:07.501Z,41.22
2022-08-29T02:15:12.768Z,41.21
2022-08-29T02:16:17.614Z,41.17
2022-08-29T02:17:20.470Z,41.21
2022-08-29T02:18:23.868Z,41.19
2022-08-29T02:19:26.684Z,41.14
2022-08-29T02:20:30.900Z,41.17
2022-08-29T02:21:33.169Z,41.16
2022-08-29T02:22:37.016Z,41.13
2022-08-29T02:23:39.525Z,41.14
2022-08-29T02:24:41.831Z,41.14
2022-08-29T02:25:44.186Z,41.17
2022-08-29T02:26:46.546Z,41.18
2022-08-29T02:27:48.785Z,41.19
2022-08-29T02:28:51.230Z,41.18
2022-08-29T02:29:54.128Z,41.17
2022-08-29T02:30:56.999Z,41.13
2022-08-29T02:31:59.445Z,41.11
2022-08-29T02:33:01.598Z,41.12
2022-08-29T02:34:06.793Z,41.11
2022-08-29T02:35:09.299Z,41.08
2022-08-29T02:36:16.287Z,41.07
2022-08-29T02:37:20.482Z,41.07
2022-08-29T02:38:22.854Z,41.06
2022-08-29T02:39:25.320Z,41.05
2022-08-29T02:40:31.832Z,41.04
2022-08-29T02:41:32.358Z,41.02
2022-08-29T02:42:34.851Z,41.03
2022-08-29T02:43:37.848Z,41.02
2022-08-29T02:44:40.273Z,41.04
2022-08-29T02:45:43.497Z,41.03
2022-08-29T02:46:46.113Z,41.02
2022-08-29T02:47:48.831Z,41.05
2022-08-29T02:48:59.978Z,41.05
2022-08-29T02:49:55.344Z,40.99
2022-08-29T02:50:57.912Z,40.80
2022-08-29T02:52:00.158Z,40.80
2022-08-29T02:53:02.327Z,41.02
2022-08-29T02:54:05.072Z,40.99
2022-08-29T02:55:08.552Z,40.98
2022-08-29T02:56:14.345Z,41.00
2022-08-29T02:57:15.394Z,40.97
2022-08-29T02:58:18.524Z,40.96
2022-08-29T02:59:20.757Z,40.97
2022-08-29T03:00:25.965Z,40.96
2022-08-29T03:01:28.706Z,40.95
2022-08-29T03:02:31.210Z,40.96
2022-08-29T03:03:33.474Z,41.00
2022-08-29T03:04:35.641Z,40.99
2022-08-29T03:05:38.418Z,41.01
2022-08-29T03:06:40.987Z,41.01
2022-08-29T03:07:45.978Z,41.02
2022-08-29T03:08:48.386Z,41.04
2022-08-29T03:09:51.383Z,41.04
2022-08-29T03:10:53.821Z,40.96
2022-08-29T03:11:56.657Z,40.96
2022-08-29T03:12:59.041Z,40.81
2022-08-29T03:14:01.771Z,40.74
2022-08-29T03:15:05.703Z,40.75
2022-08-29T03:16:08.228Z,40.71
2022-08-29T03:17:10.541Z,40.72
2022-08-29T03:18:13.751Z,40.70
2022-08-29T03:19:16.060Z,40.81
2022-08-29T03:20:20.908Z,40.81
2022-08-29T03:21:24.672Z,40.73
2022-08-29T03:22:27.056Z,40.74
2022-08-29T03:23:30.430Z,40.75
2022-08-29T03:24:35.194Z,40.75
2022-08-29T03:25:37.640Z,40.75
2022-08-29T03:26:39.894Z,40.75
2022-08-29T03:27:42.232Z,40.75
2022-08-29T03:28:44.374Z,40.76
2022-08-29T03:29:46.625Z,40.75
2022-08-29T03:30:49.086Z,40.72
2022-08-29T03:31:51.598Z,40.75
2022-08-29T03:32:54.011Z,40.72
2022-08-29T03:33:56.618Z,40.72
2022-08-29T03:34:59.235Z,40.76
2022-08-29T03:36:02.679Z,40.79
2022-08-29T03:37:06.605Z,40.84
2022-08-29T03:38:10.568Z,40.88
2022-08-29T03:39:13.115Z,40.92
2022-08-29T03:40:16.443Z,41.16
2022-08-29T03:41:24.082Z,41.16
2022-08-29T03:42:26.500Z,40.96
2022-08-29T03:43:29.643Z,40.99
2022-08-29T03:45:48.496Z,41.04
2022-08-29T03:46:50.865Z,41.04
2022-08-29T03:47:54.170Z,41.06
2022-08-29T03:48:56.458Z,41.07
2022-08-29T03:49:58.698Z,41.06
2022-08-29T03:51:00.933Z,41.09
2022-08-29T03:52:04.948Z,41.09
2022-08-29T03:53:07.295Z,41.09
2022-08-29T03:54:09.515Z,41.09
2022-08-29T03:55:13.152Z,41.10
2022-08-29T03:56:18.432Z,41.10
2022-08-29T03:57:21.307Z,41.24
2022-08-29T03:58:23.756Z,41.24
2022-08-29T03:59:26.024Z,41.14
2022-08-29T04:00:28.576Z,41.14
2022-08-29T04:01:31.799Z,41.13
2022-08-29T04:02:34.174Z,41.05
2022-08-29T04:03:36.715Z,41.03
2022-08-29T04:04:38.869Z,40.91
2022-08-29T04:05:41.785Z,40.86
2022-08-29T04:06:44.706Z,40.81
2022-08-29T04:07:56.029Z,40.73
2022-08-29T04:08:58.220Z,40.80
2022-08-29T04:10:03.760Z,40.72
2022-08-29T04:11:11.148Z,40.60
2022-08-29T04:12:13.851Z,40.64
2022-08-29T04:13:16.245Z,40.60
2022-08-29T04:14:18.668Z,40.54
2022-08-29T04:15:21.805Z,40.53
2022-08-29T04:16:30.613Z,40.46
2022-08-29T04:17:30.023Z,40.42
2022-08-29T04:18:32.413Z,40.37
2022-08-29T04:19:34.673Z,40.33
2022-08-29T04:20:39.258Z,40.40
2022-08-29T04:21:41.874Z,40.39
2022-08-29T04:22:44.240Z,40.35
2022-08-29T04:23:46.471Z,40.34
2022-08-29T04:24:50.519Z,40.40
2022-08-29T04:26:07.255Z,40.39
2022-08-29T04:26:57.559Z,40.43
2022-08-29T04:28:00.880Z,40.35
2022-08-29T04:29:04.365Z,40.29
2022-08-29T04:30:09.773Z,40.34
2022-08-29T04:31:13.824Z,40.30
2022-08-29T04:32:17.281Z,40.30
2022-08-29T04:33:22.494Z,40.28
2022-08-29T04:34:24.938Z,40.33
2022-08-29T04:35:27.714Z,40.33
2022-08-29T04:36:30.586Z,40.23
2022-08-29T04:37:34.215Z,40.28
2022-08-29T04:38:36.578Z,40.17
2022-08-29T04:39:38.801Z,40.22
2022-08-29T04:40:43.050Z,40.22
2022-08-29T04:41:45.861Z,40.24
2022-08-29T04:42:48.489Z,40.13
2022-08-29T04:43:50.647Z,40.19
2022-08-29T04:44:52.831Z,40.21
2022-08-29T04:45:55.853Z,40.20
2022-08-29T04:46:58.868Z,40.17
2022-08-29T04:48:03.789Z,40.20
2022-08-29T04:49:06.614Z,40.25
2022-08-29T04:50:11.302Z,40.18
2022-08-29T04:51:14.525Z,40.17
2022-08-29T04:52:16.848Z,40.19
2022-08-29T04:53:20.041Z,40.15
2022-08-29T04:54:22.276Z,40.08
2022-08-29T04:55:25.948Z,40.07
2022-08-29T04:56:28.518Z,40.04
2022-08-29T04:57:33.825Z,39.98
2022-08-29T04:58:37.478Z,40.01
2022-08-29T04:59:42.161Z,40.00
2022-08-29T05:00:44.963Z,39.90
2022-08-29T05:01:47.319Z,39.96
2022-08-29T05:02:49.732Z,40.06
2022-08-29T05:03:52.042Z,40.08
2022-08-29T05:04:54.440Z,40.07
2022-08-29T05:06:01.438Z,40.06
2022-08-29T05:07:03.785Z,40.04
2022-08-29T05:08:06.055Z,39.93
2022-08-29T05:09:08.195Z,39.96
2022-08-29T05:10:15.687Z,39.92
2022-08-29T05:11:22.772Z,39.81
2022-08-29T05:12:22.625Z,39.80
2022-08-29T05:13:24.848Z,39.77
2022-08-29T05:14:27.128Z,39.76
2022-08-29T05:15:29.377Z,39.65
2022-08-29T05:16:33.056Z,39.72
2022-08-29T05:17:35.440Z,39.77
2022-08-29T05:18:37.795Z,39.77
2022-08-29T05:19:44.908Z,39.73
2022-08-29T05:20:47.274Z,39.75
2022-08-29T05:21:49.732Z,39.77
2022-08-29T05:22:52.718Z,39.70
2022-08-29T05:23:55.482Z,39.60
2022-08-29T05:24:57.663Z,39.61
2022-08-29T05:26:01.648Z,39.61
2022-08-29T05:27:08.601Z,39.49
2022-08-29T05:28:12.233Z,39.50
2022-08-29T05:29:14.908Z,39.51
2022-08-29T05:30:34.009Z,39.48
2022-08-29T05:31:21.868Z,39.67
2022-08-29T05:32:24.854Z,39.67
2022-08-29T05:33:27.295Z,39.40
2022-08-29T05:34:34.191Z,39.45
2022-08-29T05:35:34.199Z,39.54
2022-08-29T05:36:36.962Z,39.44
2022-08-29T05:37:39.955Z,39.46
2022-08-29T05:38:42.112Z,39.51
2022-08-29T05:39:44.647Z,39.41
2022-08-29T05:40:47.552Z,39.43
2022-08-29T05:41:51.029Z,39.45
2022-08-29T05:42:55.136Z,39.45
2022-08-29T05:43:58.356Z,39.54
2022-08-29T05:45:01.911Z,39.38
2022-08-29T05:46:06.031Z,39.41
2022-08-29T05:47:10.110Z,39.33
2022-08-29T05:48:13.849Z,39.29
2022-08-29T05:49:16.962Z,39.21
2022-08-29T05:50:19.550Z,39.16
2022-08-29T05:51:21.824Z,39.12
2022-08-29T05:52:24.389Z,39.16
2022-08-29T05:53:26.734Z,39.05
2022-08-29T05:54:30.091Z,39.13
2022-08-29T05:55:32.896Z,39.13
2022-08-29T05:56:36.283Z,39.03
2022-08-29T05:57:39.571Z,39.03
2022-08-29T05:58:42.237Z,38.97
2022-08-29T05:59:45.709Z,38.95
2022-08-29T06:00:48.331Z,38.86
2022-08-29T06:01:51.736Z,38.82
2022-08-29T06:02:53.925Z,38.74
2022-08-29T06:03:56.402Z,38.84
2022-08-29T06:04:59.573Z,38.81
2022-08-29T06:06:01.912Z,38.80
2022-08-29T06:07:04.594Z,38.68
2022-08-29T06:08:07.559Z,38.71
2022-08-29T06:09:13.021Z,38.64
2022-08-29T06:10:17.349Z,38.64
2022-08-29T06:12:34.098Z,38.53
2022-08-29T06:13:37.196Z,38.59
2022-08-29T06:14:41.290Z,38.60
2022-08-29T06:15:45.860Z,38.84
2022-08-29T06:16:48.884Z,38.89
2022-08-29T06:17:51.153Z,39.04
2022-08-29T06:18:54.254Z,38.91
2022-08-29T06:19:57.103Z,38.75
2022-08-29T06:21:01.716Z,38.76
2022-08-29T06:22:09.544Z,38.59
2022-08-29T06:23:09.235Z,38.61
2022-08-29T06:24:11.428Z,38.57
2022-08-29T06:25:37.359Z,38.77
2022-08-29T06:26:19.846Z,38.97
2022-08-29T06:27:21.953Z,39.30
2022-08-29T06:28:26.706Z,39.67
2022-08-29T06:29:29.094Z,39.90
2022-08-29T06:30:32.599Z,39.80
2022-08-29T06:31:34.991Z,39.98
2022-08-29T06:32:37.136Z,40.58
2022-08-29T06:33:40.014Z,40.30
2022-08-29T06:34:42.591Z,40.19
2022-08-29T06:35:44.851Z,40.29
2022-08-29T06:36:47.310Z,40.61
2022-08-29T06:37:49.431Z,40.55
2022-08-29T06:38:52.627Z,40.78
2022-08-29T06:39:55.145Z,40.91
2022-08-29T06:42:15.431Z,41.33
2022-08-29T06:43:17.486Z,41.23
2022-08-29T06:44:19.629Z,41.46
2022-08-29T06:45:22.906Z,41.69
2022-08-29T06:46:32.388Z,41.70
2022-08-29T06:47:36.346Z,41.67
2022-08-29T06:48:39.057Z,41.70
2022-08-29T06:49:41.465Z,41.55
2022-08-29T06:50:45.679Z,41.65
2022-08-29T06:51:49.427Z,41.66
2022-08-29T06:52:52.130Z,41.39
2022-08-29T06:53:57.256Z,40.82
2022-08-29T06:55:00.365Z,40.94
2022-08-29T06:56:05.347Z,40.85
2022-08-29T06:57:07.783Z,41.08
2022-08-29T06:58:10.958Z,41.21
2022-08-29T06:59:13.272Z,41.27
2022-08-29T07:00:21.674Z,41.46
2022-08-29T07:01:22.393Z,41.61
2022-08-29T07:02:25.570Z,41.25
2022-08-29T07:03:28.637Z,41.52
2022-08-29T07:04:31.247Z,41.69
2022-08-29T07:05:34.982Z,41.66
2022-08-29T07:06:37.487Z,41.37
2022-08-29T07:07:39.623Z,41.68
2022-08-29T07:08:55.939Z,41.67
2022-08-29T07:09:46.502Z,41.35
2022-08-29T07:10:49.352Z,41.40
2022-08-29T07:11:51.676Z,41.37
2022-08-29T07:12:54.176Z,41.53
2022-08-29T07:13:57.644Z,41.22
2022-08-29T07:15:00.374Z,41.03
2022-08-29T07:16:03.234Z,41.03
2022-08-29T07:17:06.083Z,40.90
2022-08-29T07:18:08.695Z,41.16
2022-08-29T07:19:10.975Z,41.14
2022-08-29T07:20:14.442Z,41.18
2022-08-29T07:21:20.744Z,40.92
2022-08-29T07:22:22.079Z,40.84
2022-08-29T07:23:24.256Z,41.00
2022-08-29T07:24:27.926Z,41.20
2022-08-29T07:25:30.522Z,41.17
2022-08-29T07:26:36.729Z,41.29
2022-08-29T07:27:39.130Z,41.18
2022-08-29T07:28:45.712Z,41.09
2022-08-29T07:29:50.484Z,41.02
2022-08-29T07:30:50.365Z,40.90
2022-08-29T07:31:53.088Z,41.07
2022-08-29T07:32:55.351Z,40.40
2022-08-29T07:34:02.838Z,39.54
2022-08-29T07:35:02.627Z,40.00
2022-08-29T07:36:05.965Z,40.18
2022-08-29T07:37:10.184Z,40.22
2022-08-29T07:38:12.813Z,39.80
2022-08-29T07:39:16.720Z,39.97
2022-08-29T07:40:20.721Z,39.10
2022-08-29T07:41:23.005Z,38.95
2022-08-29T07:42:25.363Z,39.57
2022-08-29T07:43:29.022Z,39.58
2022-08-29T07:44:34.658Z,39.60
2022-08-29T07:45:39.241Z,39.65
2022-08-29T07:46:41.873Z,39.56
2022-08-29T07:47:45.516Z,38.92
2022-08-29T07:48:48.866Z,38.69
2022-08-29T07:49:51.180Z,38.69
2022-08-29T07:50:54.025Z,38.59
2022-08-29T07:51:58.209Z,38.69
2022-08-29T07:53:01.654Z,38.83
2022-08-29T07:54:04.690Z,38.92
2022-08-29T07:55:08.236Z,39.17
2022-08-29T07:56:13.586Z,39.16
2022-08-29T07:57:17.507Z,39.23
2022-08-29T07:58:19.923Z,39.19
2022-08-29T07:59:22.246Z,39.02
2022-08-29T08:00:25.982Z,38.71
2022-08-29T08:01:29.203Z,38.70
2022-08-29T08:02:31.726Z,38.91
2022-08-29T08:03:35.005Z,38.17
2022-08-29T08:04:37.545Z,37.59
2022-08-29T08:05:39.803Z,37.16
2022-08-29T08:06:42.655Z,37.61
2022-08-29T08:07:45.325Z,38.00
2022-08-29T08:08:49.628Z,38.13
2022-08-29T08:09:53.269Z,37.85
2022-08-29T08:10:56.209Z,37.73
2022-08-29T08:11:59.385Z,37.76
2022-08-29T08:13:01.660Z,37.70
2022-08-29T08:14:03.803Z,37.54
2022-08-29T08:15:06.929Z,37.57
2022-08-29T08:16:11.783Z,37.64
2022-08-29T08:17:14.584Z,37.24
2022-08-29T08:18:16.939Z,37.03
2022-08-29T08:19:19.229Z,36.72
2022-08-29T08:20:23.445Z,36.92
2022-08-29T08:21:26.436Z,36.79
2022-08-29T08:22:28.783Z,36.71
2022-08-29T08:23:31.040Z,37.02
2022-08-29T08:24:34.424Z,37.13
2022-08-29T08:25:36.854Z,37.18
2022-08-29T08:26:39.749Z,37.30
2022-08-29T08:27:43.365Z,36.96
2022-08-29T08:28:46.425Z,36.96
2022-08-29T08:29:48.737Z,36.99
2022-08-29T08:30:52.241Z,36.43
2022-08-29T08:31:54.919Z,36.73
2022-08-29T08:32:57.374Z,36.67
2022-08-29T08:34:00.284Z,36.53
2022-08-29T08:35:03.447Z,36.52
2022-08-29T08:36:17.535Z,36.05
2022-08-29T08:37:27.934Z,36.05
2022-08-29T08:38:25.471Z,36.54
2022-08-29T08:39:27.701Z,36.52
2022-08-29T08:40:32.142Z,36.62
2022-08-29T08:41:40.921Z,36.90
2022-08-29T08:42:44.550Z,36.73
2022-08-29T08:43:52.435Z,36.76
2022-08-29T08:46:24.104Z,36.44
2022-08-29T08:47:29.921Z,36.61
2022-08-29T08:48:36.494Z,36.02
2022-08-29T08:49:43.097Z,36.19
2022-08-29T08:50:55.080Z,36.28
2022-08-29T08:52:00.120Z,36.27
2022-08-29T08:54:27.121Z,36.42
2022-08-29T08:55:38.964Z,36.14
2022-08-29T08:56:44.884Z,35.95
2022-08-29T08:57:54.059Z,36.08
2022-08-29T08:59:15.066Z,36.21
2022-08-29T09:00:19.080Z,35.96
2022-08-29T09:01:24.279Z,36.29
2022-08-29T09:04:16.384Z,35.90
2022-08-29T09:05:39.453Z,35.92
2022-08-29T09:07:05.143Z,36.01
2022-08-29T09:09:44.442Z,36.11
2022-08-29T09:12:28.779Z,35.10
2022-08-29T09:14:04.526Z,35.56
2022-08-29T09:15:11.168Z,35.68
2022-08-29T09:16:18.339Z,35.35
2022-08-29T09:17:36.454Z,34.81
2022-08-29T09:18:42.788Z,34.59
2022-08-29T09:19:47.262Z,34.69
2022-08-29T09:20:50.956Z,34.82
2022-08-29T09:21:56.005Z,35.14
2022-08-29T09:23:07.222Z,35.34
2022-08-29T09:24:18.421Z,35.64
2022-08-29T09:25:23.900Z,35.76
2022-08-29T09:26:27.005Z,35.68
2022-08-29T09:27:30.873Z,34.71
2022-08-29T09:28:33.112Z,34.56
2022-08-29T09:29:35.948Z,35.07
2022-08-29T09:30:41.217Z,34.86
2022-08-29T09:31:43.845Z,34.56
2022-08-29T09:34:12.320Z,34.18
2022-08-29T09:35:21.871Z,33.45
2022-08-29T09:36:47.561Z,33.85
2022-08-29T09:37:58.657Z,34.39
2022-08-29T09:39:24.181Z,34.25
2022-08-29T09:40:42.428Z,34.21
2022-08-29T09:41:47.465Z,34.30
2022-08-29T09:42:54.629Z,34.05
2022-08-29T09:43:56.911Z,34.54
2022-08-29T09:46:19.720Z,34.61
2022-08-29T09:47:29.530Z,34.97
2022-08-29T09:48:35.290Z,34.81
2022-08-29T09:49:37.206Z,34.60
2022-08-29T09:50:39.954Z,34.53
2022-08-29T09:52:59.040Z,34.74
2022-08-29T09:54:26.964Z,34.74
2022-08-29T09:55:40.214Z,34.88
2022-08-29T09:56:51.683Z,34.74
2022-08-29T09:57:57.444Z,34.66
2022-08-29T10:01:44.970Z,34.61
2022-08-29T10:02:52.849Z,34.37
2022-08-29T10:04:00.400Z,34.40
2022-08-29T10:05:06.257Z,34.70
2022-08-29T10:06:22.670Z,34.75
2022-08-29T10:09:07.801Z,34.33
2022-08-29T10:11:45.383Z,34.23
2022-08-29T10:13:09.630Z,34.42
2022-08-29T10:14:16.059Z,34.33
2022-08-29T10:15:50.570Z,34.15
2022-08-29T10:16:59.265Z,34.29
2022-08-29T10:19:26.722Z,34.33
2022-08-29T10:20:55.199Z,34.42
2022-08-29T10:23:39.135Z,34.05
2022-08-29T10:24:54.122Z,34.69
2022-08-29T10:25:57.721Z,34.48
2022-08-29T10:27:11.088Z,34.67
2022-08-29T10:28:34.427Z,33.90
2022-08-29T10:29:41.233Z,33.82
2022-08-29T10:31:11.288Z,33.75
2022-08-29T10:32:36.623Z,33.95
2022-08-29T10:35:50.112Z,33.87
2022-08-29T10:36:55.912Z,33.71
2022-08-29T10:39:28.764Z,33.76
2022-08-29T10:40:38.757Z,33.78
2022-08-29T10:41:50.348Z,33.68
2022-08-29T10:44:24.651Z,33.82
2022-08-29T10:47:24.583Z,32.94
2022-08-29T10:50:07.767Z,32.36
2022-08-29T10:51:31.052Z,32.28
2022-08-29T10:52:56.015Z,32.33
2022-08-29T10:54:26.739Z,32.32
2022-08-29T10:55:50.477Z,32.39
2022-08-29T10:58:20.503Z,32.42
2022-08-29T10:59:26.608Z,32.38
2022-08-29T11:01:58.669Z,32.35
2022-08-29T11:03:30.287Z,32.42
2022-08-29T11:04:38.192Z,32.53
2022-08-29T11:05:43.779Z,32.59
2022-08-29T11:06:53.758Z,32.59
2022-08-29T11:09:42.002Z,32.49
2022-08-29T11:10:45.426Z,33.30
2022-08-29T11:13:09.963Z,32.68
2022-08-29T11:15:43.209Z,32.35
2022-08-29T11:16:47.917Z,32.25
2022-08-29T11:18:13.630Z,31.73
2022-08-29T11:19:35.717Z,31.49
2022-08-29T11:20:42.345Z,31.54
2022-08-29T11:23:38.950Z,32.14
2022-08-29T11:24:45.172Z,31.70
2022-08-29T11:25:45.218Z,31.34
2022-08-29T11:27:07.429Z,31.25
2022-08-29T11:28:31.453Z,31.39
2022-08-29T11:31:15.763Z,31.73
2022-08-29T11:32:46.338Z,31.55
2022-08-29T11:35:35.994Z,31.40
2022-08-29T11:36:45.118Z,31.44
2022-08-29T11:38:03.525Z,31.53
2022-08-29T11:42:07.570Z,30.49
2022-08-29T11:43:12.693Z,30.14
2022-08-29T11:45:46.723Z,29.47
2022-08-29T11:46:56.026Z,29.54
2022-08-29T11:48:04.885Z,29.52
2022-08-29T11:50:36.538Z,29.22
2022-08-29T11:51:38.932Z,29.21
2022-08-29T11:53:01.815Z,29.42
2022-08-29T11:54:25.326Z,29.44
2022-08-29T11:55:33.534Z,29.10
2022-08-29T11:58:03.853Z,29.26
2022-08-29T11:59:03.120Z,29.48
2022-08-29T12:00:09.722Z,29.53
2022-08-29T12:01:37.711Z,29.60
2022-08-29T12:02:40.580Z,29.51
2022-08-29T12:03:44.221Z,29.57
2022-08-29T12:04:51.809Z,29.64
2022-08-29T12:05:58.170Z,29.73
2022-08-29T12:07:01.941Z,29.70
2022-08-29T12:09:50.086Z,29.76
2022-08-29T12:12:11.320Z,29.66
2022-08-29T12:13:15.085Z,29.61
2022-08-29T12:14:41.649Z,29.57
2022-08-29T12:15:48.857Z,29.51
2022-08-29T12:16:51.626Z,29.46
2022-08-29T12:18:04.649Z,29.57
2022-08-29T12:19:01.517Z,29.71
2022-08-29T12:20:16.173Z,29.75
2022-08-29T12:21:38.608Z,29.81
2022-08-29T12:23:13.900Z,29.89
2022-08-29T12:24:31.723Z,30.08
2022-08-29T12:25:55.181Z,30.17
2022-08-29T12:26:52.144Z,30.20
2022-08-29T12:28:00.514Z,30.34
2022-08-29T12:29:10.565Z,30.37
2022-08-29T12:30:07.843Z,30.42
2022-08-29T12:31:20.915Z,30.45
2022-08-29T12:32:34.706Z,30.46
2022-08-29T12:34:11.308Z,30.51
2022-08-29T12:35:39.871Z,30.53
2022-08-29T12:37:02.451Z,30.57
2022-08-29T12:38:11.544Z,30.64
2022-08-29T12:39:27.864Z,30.79
2022-08-29T12:42:05.730Z,30.97
2022-08-29T12:43:28.084Z,31.10
2022-08-29T12:44:41.625Z,31.09
2022-08-29T12:45:44.924Z,31.15
2022-08-29T12:46:53.025Z,31.16
2022-08-29T12:48:01.218Z,31.16
2022-08-29T12:50:35.262Z,31.24
2022-08-29T12:51:41.538Z,31.31
2022-08-29T12:52:44.200Z,31.31
2022-08-29T12:53:48.352Z,31.38
2022-08-29T12:54:56.153Z,31.44
2022-08-29T12:55:57.294Z,31.49
2022-08-29T12:57:00.284Z,31.61
2022-08-29T12:58:03.140Z,31.96
2022-08-29T12:59:06.595Z,31.96
2022-08-29T13:01:30.694Z,31.84
2022-08-29T13:02:35.270Z,31.92
2022-08-29T13:03:37.808Z,31.94
2022-08-29T13:04:43.297Z,32.03
2022-08-29T13:05:47.667Z,32.07
2022-08-29T13:08:13.768Z,31.98
2022-08-29T13:09:30.723Z,31.91
2022-08-29T13:10:35.561Z,31.88
2022-08-29T13:11:37.852Z,31.87
2022-08-29T13:12:42.519Z,31.90
2022-08-29T13:13:44.844Z,31.92
2022-08-29T13:15:07.625Z,31.91
2022-08-29T13:16:26.088Z,31.91
2022-08-29T13:17:39.095Z,31.91
2022-08-29T13:19:00.109Z,31.90
2022-08-29T13:20:25.078Z,31.89
2022-08-29T13:21:30.047Z,32.00
2022-08-29T13:22:33.384Z,32.06
2022-08-29T13:23:38.485Z,32.06
2022-08-29T13:24:40.643Z,32.10
2022-08-29T13:26:02.522Z,32.14
2022-08-29T13:27:06.233Z,32.19
2022-08-29T13:28:15.356Z,32.25
2022-08-29T13:30:35.717Z,32.23
2022-08-29T13:31:39.795Z,32.22
2022-08-29T13:34:05.061Z,32.18
2022-08-29T13:35:28.837Z,32.09
2022-08-29T13:36:41.430Z,32.01
2022-08-29T13:37:44.858Z,31.96
2022-08-29T13:38:49.042Z,31.97
2022-08-29T13:39:51.384Z,32.01
2022-08-29T13:40:55.225Z,32.06
2022-08-29T13:42:04.029Z,32.07
2022-08-29T13:43:06.521Z,32.14
2022-08-29T13:45:33.299Z,32.18
2022-08-29T13:46:36.889Z,32.20
2022-08-29T13:47:43.462Z,32.18
2022-08-29T13:48:53.731Z,32.19
2022-08-29T13:51:09.991Z,32.17
2022-08-29T13:52:12.427Z,32.22
2022-08-29T13:53:14.711Z,32.20
2022-08-29T13:54:17.742Z,32.24
2022-08-29T13:55:20.358Z,32.25
2022-08-29T13:56:32.299Z,32.23
2022-08-29T13:57:33.193Z,32.24
2022-08-29T13:58:35.554Z,32.24
2022-08-29T13:59:37.703Z,32.28
2022-08-29T14:00:41.998Z,32.26
2022-08-29T14:02:49.512Z,32.35
2022-08-29T14:03:52.239Z,32.53
2022-08-29T14:04:55.645Z,32.53
2022-08-29T14:05:59.477Z,32.48
2022-08-29T14:07:02.652Z,32.61
2022-08-29T14:08:06.066Z,32.79
2022-08-29T14:09:10.667Z,33.11
2022-08-29T14:10:14.615Z,33.05
2022-08-29T14:11:18.068Z,33.06
2022-08-29T14:12:32.955Z,33.06
2022-08-29T14:13:25.512Z,32.76
2022-08-29T14:14:29.939Z,32.95
2022-08-29T14:15:32.925Z,32.77
2022-08-29T14:16:35.331Z,32.77
2022-08-29T14:17:41.611Z,32.86
2022-08-29T14:18:43.801Z,32.81
2022-08-29T14:19:46.181Z,32.79
2022-08-29T14:20:48.636Z,32.79
2022-08-29T14:21:51.306Z,32.82
2022-08-29T14:22:53.807Z,32.80
2022-08-29T14:23:56.034Z,32.84
2022-08-29T14:24:58.299Z,32.90
2022-08-29T14:26:00.922Z,32.98
2022-08-29T14:27:03.886Z,33.22
2022-08-29T14:28:06.658Z,33.28
2022-08-29T14:29:09.172Z,33.35
2022-08-29T14:30:13.831Z,33.51
2022-08-29T14:31:16.326Z,33.54
2022-08-29T14:32:19.597Z,33.59
2022-08-29T14:33:21.904Z,33.62
2022-08-29T14:34:24.048Z,33.65
2022-08-29T14:35:27.586Z,33.65
2022-08-29T14:36:31.028Z,33.69
2022-08-29T14:37:34.122Z,33.69
2022-08-29T14:38:39.554Z,33.72
2022-08-29T14:39:41.989Z,33.72
2022-08-29T14:40:44.719Z,33.71
2022-08-29T14:41:47.404Z,33.70
2022-08-29T14:42:50.124Z,33.71
2022-08-29T14:43:52.372Z,33.70
2022-08-29T14:44:54.598Z,33.74
2022-08-29T14:45:57.991Z,33.76
2022-08-29T14:47:00.560Z,33.77
2022-08-29T14:48:03.334Z,33.77
2022-08-29T14:49:05.663Z,33.80
2022-08-29T14:50:09.010Z,33.81
2022-08-29T14:51:11.221Z,33.86
2022-08-29T14:52:13.481Z,33.89
2022-08-29T14:53:15.636Z,33.92
2022-08-29T14:54:20.084Z,33.94
2022-08-29T14:55:22.408Z,33.97
2022-08-29T14:56:47.163Z,33.99
2022-08-29T14:57:32.314Z,34.02
2022-08-29T14:58:34.470Z,34.26
2022-08-29T14:59:36.855Z,34.34
2022-08-29T15:00:40.057Z,34.29
2022-08-29T15:01:42.443Z,34.54
2022-08-29T15:02:45.354Z,34.37
2022-08-29T15:03:47.634Z,34.59
2022-08-29T15:04:50.527Z,34.48
2022-08-29T15:05:53.193Z,34.55
2022-08-29T15:06:56.625Z,34.49
2022-08-29T15:08:04.459Z,34.45
2022-08-29T15:09:05.647Z,34.46
2022-08-29T15:10:10.022Z,34.53